createdAt,value
2022-11-12T00:00:13.940Z,6.44
2022-11-12T00:01:13.939Z,6.41
2022-11-12T00:02:13.980Z,6.39
2022-11-12T00:03:13.922Z,6.38
2022-11-12T00:04:13.911Z,6.36
2022-11-12T00:05:13.935Z,6.36
2022-11-12T00:06:13.882Z,6.35
2022-11-12T00:07:14.624Z,6.31
2022-11-12T00:08:13.867Z,6.31
2022-11-12T00:09:13.845Z,6.30
2022-11-12T00:10:13.944Z,6.28
2022-11-12T00:11:13.855Z,6.30
2022-11-12T00:12:13.824Z,6.30
2022-11-12T00:13:13.811Z,6.28
2022-11-12T00:14:13.816Z,6.26
2022-11-12T00:15:13.792Z,6.26
2022-11-12T00:16:13.781Z,6.24
2022-11-12T00:17:13.818Z,6.22
2022-11-12T00:18:13.813Z,6.20
2022-11-12T00:19:13.752Z,6.17
2022-11-12T00:20:13.779Z,6.16
2022-11-12T00:21:13.716Z,6.14
2022-11-12T00:22:13.733Z,6.14
2022-11-12T00:23:13.728Z,6.16
2022-11-12T00:24:13.685Z,6.14
2022-11-12T00:25:13.707Z,6.12
2022-11-12T00:26:13.654Z,6.11
2022-11-12T00:27:13.656Z,6.09
2022-11-12T00:28:13.645Z,6.11
2022-11-12T00:29:13.627Z,6.08
2022-11-12T00:30:13.638Z,6.07
2022-11-12T00:31:13.638Z,6.05
2022-11-12T00:32:13.614Z,6.05
2022-11-12T00:33:13.590Z,6.05
2022-11-12T00:34:13.598Z,6.05
2022-11-12T00:35:14.244Z,6.05
2022-11-12T00:36:13.575Z,6.02
2022-11-12T00:37:13.569Z,6.04
2022-11-12T00:38:13.537Z,6.02
2022-11-12T00:39:13.504Z,6.01
2022-11-12T00:40:13.500Z,6.01
2022-11-12T00:41:13.518Z,5.98
2022-11-12T00:42:13.500Z,5.94
2022-11-12T00:43:13.465Z,5.93
2022-11-12T00:44:13.468Z,5.94
2022-11-12T00:45:13.454Z,5.94
2022-11-12T00:46:13.490Z,5.94
2022-11-12T00:47:13.420Z,5.97
2022-11-12T00:48:13.437Z,5.97
2022-11-12T00:49:13.409Z,5.94
2022-11-12T00:50:13.449Z,5.90
2022-11-12T00:51:13.386Z,5.87
2022-11-12T00:52:13.434Z,5.84
2022-11-12T00:53:13.696Z,5.83
2022-11-12T00:54:13.360Z,5.83
2022-11-12T00:55:13.351Z,5.82
2022-11-12T00:56:13.323Z,5.80
2022-11-12T00:57:13.313Z,5.80
2022-11-12T00:58:13.321Z,5.79
2022-11-12T00:59:13.281Z,5.76
2022-11-12T01:00:13.351Z,5.76
2022-11-12T01:01:13.349Z,5.75
2022-11-12T01:02:13.272Z,5.73
2022-11-12T01:03:13.282Z,5.73
2022-11-12T01:04:13.262Z,5.73
2022-11-12T01:05:13.254Z,5.72
2022-11-12T01:06:13.225Z,5.72
2022-11-12T01:07:13.237Z,5.75
2022-11-12T01:08:13.204Z,5.75
2022-11-12T01:09:13.195Z,5.72
2022-11-12T01:10:13.191Z,5.71
2022-11-12T01:11:13.155Z,5.71
2022-11-12T01:12:13.154Z,5.71
2022-11-12T01:13:13.171Z,5.69
2022-11-12T01:14:13.120Z,5.69
2022-11-12T01:15:13.114Z,5.69
2022-11-12T01:16:13.147Z,5.71
2022-11-12T01:17:13.102Z,5.71
2022-11-12T01:18:13.087Z,5.69
2022-11-12T01:19:13.076Z,5.69
2022-11-12T01:20:13.059Z,5.68
2022-11-12T01:21:13.047Z,5.68
2022-11-12T01:22:13.067Z,5.69
2022-11-12T01:23:13.030Z,5.72
2022-11-12T01:24:13.017Z,5.72
2022-11-12T01:25:13.018Z,5.71
2022-11-12T01:26:13.034Z,5.71
2022-11-12T01:27:12.980Z,5.71
2022-11-12T01:28:12.968Z,5.71
2022-11-12T01:29:12.950Z,5.71
2022-11-12T01:30:12.988Z,5.68
2022-11-12T01:31:12.952Z,5.68
2022-11-12T01:32:12.950Z,5.66
2022-11-12T01:33:12.909Z,5.65
2022-11-12T01:34:12.917Z,5.65
2022-11-12T01:35:12.895Z,5.64
2022-11-12T01:36:12.912Z,5.62
2022-11-12T01:37:12.892Z,5.61
2022-11-12T01:38:12.876Z,5.61
2022-11-12T01:39:12.868Z,5.62
2022-11-12T01:40:12.871Z,5.62
2022-11-12T01:41:12.842Z,5.66
2022-11-12T01:42:12.821Z,5.66
2022-11-12T01:43:12.790Z,5.69
2022-11-12T01:44:12.796Z,5.68
2022-11-12T01:45:12.771Z,5.68
2022-11-12T01:46:12.792Z,5.65
2022-11-12T01:47:12.757Z,5.64
2022-11-12T01:48:12.744Z,5.62
2022-11-12T01:49:12.734Z,5.61
2022-11-12T01:50:13.149Z,5.59
2022-11-12T01:51:12.703Z,5.59
2022-11-12T01:52:12.702Z,5.59
2022-11-12T01:53:12.707Z,5.61
2022-11-12T01:54:12.692Z,5.65
2022-11-12T01:55:12.662Z,5.69
2022-11-12T01:56:12.687Z,5.69
2022-11-12T01:57:12.633Z,5.66
2022-11-12T01:58:12.632Z,5.65
2022-11-12T01:59:12.622Z,5.61
2022-11-12T02:00:12.625Z,5.61
2022-11-12T02:01:12.636Z,5.57
2022-11-12T02:02:12.592Z,5.54
2022-11-12T02:03:12.558Z,5.51
2022-11-12T02:04:13.539Z,5.50
2022-11-12T02:05:12.564Z,5.47
2022-11-12T02:06:12.534Z,5.44
2022-11-12T02:07:12.572Z,5.41
2022-11-12T02:08:12.543Z,5.41
2022-11-12T02:09:12.505Z,5.39
2022-11-12T02:10:12.514Z,5.38
2022-11-12T02:11:12.506Z,5.36
2022-11-12T02:12:12.464Z,5.35
2022-11-12T02:13:12.455Z,5.35
2022-11-12T02:14:12.445Z,5.36
2022-11-12T02:15:12.455Z,5.35
2022-11-12T02:16:12.417Z,5.33
2022-11-12T02:17:12.428Z,5.35
2022-11-12T02:18:12.396Z,5.35
2022-11-12T02:19:12.396Z,5.33
2022-11-12T02:20:12.399Z,5.32
2022-11-12T02:21:12.389Z,5.30
2022-11-12T02:22:12.357Z,5.30
2022-11-12T02:23:12.357Z,5.32
2022-11-12T02:24:12.326Z,5.30
2022-11-12T02:25:12.545Z,5.29
2022-11-12T02:26:12.307Z,5.30
2022-11-12T02:27:12.298Z,5.29
2022-11-12T02:28:12.278Z,5.26
2022-11-12T02:29:12.268Z,5.26
2022-11-12T02:30:12.300Z,5.26
2022-11-12T02:31:12.280Z,5.25
2022-11-12T02:32:12.244Z,5.21
2022-11-12T02:33:12.271Z,5.21
2022-11-12T02:34:12.228Z,5.20
2022-11-12T02:35:12.208Z,5.18
2022-11-12T02:36:12.214Z,5.18
2022-11-12T02:37:12.189Z,5.15
2022-11-12T02:38:12.219Z,5.17
2022-11-12T02:39:12.173Z,5.15
2022-11-12T02:40:12.184Z,5.15
2022-11-12T02:41:12.141Z,5.14
2022-11-12T02:42:12.149Z,5.11
2022-11-12T02:43:12.135Z,5.11
2022-11-12T02:44:12.163Z,5.10
2022-11-12T02:45:12.118Z,5.10
2022-11-12T02:46:12.104Z,5.11
2022-11-12T02:47:12.103Z,5.15
2022-11-12T02:48:16.461Z,5.18
2022-11-12T02:49:13.088Z,5.18
2022-11-12T02:50:12.022Z,5.23
2022-11-12T02:51:12.072Z,5.25
2022-11-12T02:52:12.066Z,5.25
2022-11-12T02:53:11.996Z,5.21
2022-11-12T02:54:11.994Z,5.18
2022-11-12T02:55:12.015Z,5.17
2022-11-12T02:56:11.972Z,5.12
2022-11-12T02:57:11.963Z,5.11
2022-11-12T02:58:11.943Z,5.11
2022-11-12T02:59:11.938Z,5.11
2022-11-12T03:00:11.938Z,5.11
2022-11-12T03:01:11.992Z,5.12
2022-11-12T03:02:11.903Z,5.15
2022-11-12T03:03:11.885Z,5.15
2022-11-12T03:04:11.876Z,5.15
2022-11-12T03:05:11.865Z,5.17
2022-11-12T03:06:11.878Z,5.18
2022-11-12T03:07:11.903Z,5.20
2022-11-12T03:08:11.843Z,5.25
2022-11-12T03:09:11.824Z,5.26
2022-11-12T03:10:11.818Z,5.26
2022-11-12T03:11:11.804Z,5.21
2022-11-12T03:12:11.797Z,5.21
2022-11-12T03:13:11.795Z,5.20
2022-11-12T03:14:11.787Z,5.15
2022-11-12T03:15:12.695Z,5.14
2022-11-12T03:16:11.752Z,5.11
2022-11-12T03:17:11.771Z,5.08
2022-11-12T03:18:11.729Z,5.08
2022-11-12T03:19:11.711Z,5.07
2022-11-12T03:20:12.642Z,5.07
2022-11-12T03:21:11.684Z,5.07
2022-11-12T03:22:11.688Z,5.07
2022-11-12T03:23:11.686Z,5.07
2022-11-12T03:24:11.688Z,5.05
2022-11-12T03:25:11.637Z,5.05
2022-11-12T03:26:11.643Z,5.05
2022-11-12T03:27:11.619Z,5.02
2022-11-12T03:28:11.611Z,5.04
2022-11-12T03:29:11.628Z,5.04
2022-11-12T03:30:11.589Z,5.02
2022-11-12T03:31:11.577Z,5.00
2022-11-12T03:32:11.580Z,4.99
2022-11-12T03:33:11.566Z,4.99
2022-11-12T03:34:11.546Z,4.99
2022-11-12T03:35:11.561Z,4.97
2022-11-12T03:36:11.520Z,4.92
2022-11-12T03:37:11.502Z,4.90
2022-11-12T03:38:11.506Z,4.86
2022-11-12T03:39:11.505Z,4.86
2022-11-12T03:40:11.514Z,4.84
2022-11-12T03:41:11.456Z,4.82
2022-11-12T03:42:11.460Z,4.80
2022-11-12T03:43:11.450Z,4.77
2022-11-12T03:44:11.429Z,4.78
2022-11-12T03:45:11.412Z,4.78
2022-11-12T03:46:11.438Z,4.78
2022-11-12T03:47:11.407Z,4.77
2022-11-12T03:48:11.388Z,4.77
2022-11-12T03:49:11.373Z,4.78
2022-11-12T03:50:11.401Z,4.78
2022-11-12T03:51:11.369Z,4.78
2022-11-12T03:52:11.334Z,4.80
2022-11-12T03:53:11.318Z,4.82
2022-11-12T03:54:11.344Z,4.80
2022-11-12T03:55:11.339Z,4.82
2022-11-12T03:56:11.291Z,4.82
2022-11-12T03:57:11.296Z,4.82
2022-11-12T03:58:11.278Z,4.80
2022-11-12T03:59:11.315Z,4.82
2022-11-12T04:00:11.259Z,4.80
2022-11-12T04:01:11.293Z,4.80
2022-11-12T04:02:12.181Z,4.82
2022-11-12T04:03:11.222Z,4.82
2022-11-12T04:04:11.200Z,4.82
2022-11-12T04:05:11.229Z,4.80
2022-11-12T04:06:11.191Z,4.78
2022-11-12T04:07:11.255Z,4.77
2022-11-12T04:08:11.148Z,4.75
2022-11-12T04:09:11.150Z,4.74
2022-11-12T04:10:11.166Z,4.74
2022-11-12T04:11:11.131Z,4.73
2022-11-12T04:12:11.129Z,4.73
2022-11-12T04:13:11.151Z,4.70
2022-11-12T04:14:11.099Z,4.70
2022-11-12T04:15:11.083Z,4.68
2022-11-12T04:16:11.068Z,4.70
2022-11-12T04:17:12.036Z,4.67
2022-11-12T04:18:11.040Z,4.63
2022-11-12T04:19:11.102Z,4.63
2022-11-12T04:20:11.023Z,4.62
2022-11-12T04:21:11.014Z,4.63
2022-11-12T04:22:10.998Z,4.63
2022-11-12T04:23:10.991Z,4.63
2022-11-12T04:24:10.981Z,4.66
2022-11-12T04:25:10.994Z,4.63
2022-11-12T04:26:10.972Z,4.62
2022-11-12T04:27:10.961Z,4.60
2022-11-12T04:28:10.931Z,4.60
2022-11-12T04:29:10.933Z,4.58
2022-11-12T04:30:10.954Z,4.58
2022-11-12T04:31:10.901Z,4.58
2022-11-12T04:32:10.922Z,4.56
2022-11-12T04:33:10.876Z,4.56
2022-11-12T04:34:10.874Z,4.53
2022-11-12T04:35:10.932Z,4.53
2022-11-12T04:36:10.852Z,4.52
2022-11-12T04:37:10.863Z,4.53
2022-11-12T04:38:10.850Z,4.53
2022-11-12T04:39:10.833Z,4.53
2022-11-12T04:40:10.817Z,4.55
2022-11-12T04:41:10.844Z,4.53
2022-11-12T04:42:10.807Z,4.53
2022-11-12T04:43:10.799Z,4.55
2022-11-12T04:44:10.756Z,4.55
2022-11-12T04:45:10.750Z,4.55
2022-11-12T04:46:10.760Z,4.58
2022-11-12T04:47:10.736Z,4.56
2022-11-12T04:48:10.714Z,4.56
2022-11-12T04:49:10.715Z,4.53
2022-11-12T04:50:10.694Z,4.55
2022-11-12T04:51:10.717Z,4.55
2022-11-12T04:52:10.715Z,4.56
2022-11-12T04:53:10.669Z,4.58
2022-11-12T04:54:10.645Z,4.58
2022-11-12T04:55:10.650Z,4.55
2022-11-12T04:56:10.637Z,4.55
2022-11-12T04:57:10.625Z,4.55
2022-11-12T04:58:10.658Z,4.55
2022-11-12T04:59:10.603Z,4.52
2022-11-12T05:00:11.536Z,4.50
2022-11-12T05:01:10.679Z,4.49
2022-11-12T05:02:10.558Z,4.48
2022-11-12T05:03:10.559Z,4.45
2022-11-12T05:04:10.550Z,4.44
2022-11-12T05:05:10.529Z,4.42
2022-11-12T05:06:10.536Z,4.40
2022-11-12T05:07:10.551Z,4.40
2022-11-12T05:08:10.513Z,4.38
2022-11-12T05:09:10.488Z,4.37
2022-11-12T05:10:10.515Z,4.37
2022-11-12T05:11:12.941Z,4.34
2022-11-12T05:12:10.503Z,4.34
2022-11-12T05:13:10.652Z,4.32
2022-11-12T05:14:10.436Z,4.32
2022-11-12T05:15:10.433Z,4.32
2022-11-12T05:16:10.419Z,4.32
2022-11-12T05:17:10.419Z,4.31
2022-11-12T05:18:10.419Z,4.30
2022-11-12T05:19:10.382Z,4.28
2022-11-12T05:20:10.388Z,4.30
2022-11-12T05:21:10.371Z,4.28
2022-11-12T05:22:21.876Z,4.28
2022-11-12T05:23:11.320Z,4.28
2022-11-12T05:24:22.403Z,4.32
2022-11-12T05:25:11.313Z,4.37
2022-11-12T05:26:10.290Z,4.40
2022-11-12T05:27:10.296Z,4.40
2022-11-12T05:28:10.294Z,4.41
2022-11-12T05:29:10.314Z,4.37
2022-11-12T05:30:10.252Z,4.35
2022-11-12T05:31:10.260Z,4.34
2022-11-12T05:32:10.238Z,4.32
2022-11-12T05:33:10.223Z,4.30
2022-11-12T05:34:10.210Z,4.30
2022-11-12T05:35:10.239Z,4.28
2022-11-12T05:36:10.182Z,4.24
2022-11-12T05:37:10.189Z,4.22
2022-11-12T05:38:11.644Z,4.22
2022-11-12T05:39:10.212Z,4.24
2022-11-12T05:40:10.144Z,4.24
2022-11-12T05:41:10.162Z,4.24
2022-11-12T05:42:14.261Z,4.24
2022-11-12T05:43:10.118Z,4.24
2022-11-12T05:44:10.859Z,4.23
2022-11-12T05:45:10.087Z,4.22
2022-11-12T05:46:10.087Z,4.22
2022-11-12T05:47:10.109Z,4.22
2022-11-12T05:48:10.097Z,4.22
2022-11-12T05:49:10.083Z,4.22
2022-11-12T05:50:10.057Z,4.20
2022-11-12T05:51:14.178Z,4.20
2022-11-12T05:52:10.103Z,4.19
2022-11-12T05:53:10.036Z,4.16
2022-11-12T05:54:09.997Z,4.16
2022-11-12T05:55:10.822Z,4.17
2022-11-12T05:56:09.986Z,4.19
2022-11-12T05:57:09.966Z,4.19
2022-11-12T05:58:09.957Z,4.19
2022-11-12T05:59:09.984Z,4.19
2022-11-12T06:00:09.962Z,4.17
2022-11-12T06:01:09.935Z,4.16
2022-11-12T06:02:10.003Z,4.14
2022-11-12T06:03:09.921Z,4.14
2022-11-12T06:04:09.877Z,4.13
2022-11-12T06:05:09.919Z,4.12
2022-11-12T06:06:09.857Z,4.08
2022-11-12T06:07:09.916Z,4.10
2022-11-12T06:08:09.840Z,4.10
2022-11-12T06:09:09.826Z,4.12
2022-11-12T06:10:09.808Z,4.13
2022-11-12T06:11:09.865Z,4.16
2022-11-12T06:12:09.829Z,4.19
2022-11-12T06:13:09.795Z,4.19
2022-11-12T06:14:09.768Z,4.17
2022-11-12T06:15:09.780Z,4.17
2022-11-12T06:16:09.783Z,4.16
2022-11-12T06:17:09.794Z,4.13
2022-11-12T06:18:09.731Z,4.13
2022-11-12T06:19:09.725Z,4.12
2022-11-12T06:20:09.707Z,4.12
2022-11-12T06:21:09.692Z,4.10
2022-11-12T06:22:09.686Z,4.06
2022-11-12T06:23:16.890Z,4.08
2022-11-12T06:24:09.691Z,4.10
2022-11-12T06:25:09.643Z,4.10
2022-11-12T06:26:09.639Z,4.13
2022-11-12T06:27:09.633Z,4.13
2022-11-12T06:28:09.693Z,4.13
2022-11-12T06:29:09.620Z,4.13
2022-11-12T06:30:10.414Z,4.12
2022-11-12T06:31:09.603Z,4.12
2022-11-12T06:32:09.574Z,4.12
2022-11-12T06:33:09.648Z,4.12
2022-11-12T06:34:09.548Z,4.12
2022-11-12T06:35:09.565Z,4.12
2022-11-12T06:36:09.537Z,4.10
2022-11-12T06:37:09.525Z,4.10
2022-11-12T06:38:09.544Z,4.12
2022-11-12T06:39:09.517Z,4.10
2022-11-12T06:40:10.944Z,4.08
2022-11-12T06:41:10.430Z,4.08
2022-11-12T06:42:09.458Z,4.06
2022-11-12T06:43:09.455Z,4.06
2022-11-12T06:44:09.493Z,4.08
2022-11-12T06:45:09.426Z,4.08
2022-11-12T06:46:09.415Z,4.08
2022-11-12T06:47:09.416Z,4.10
2022-11-12T06:48:09.403Z,4.10
2022-11-12T06:49:09.385Z,4.08
2022-11-12T06:50:09.406Z,4.12
2022-11-12T06:51:09.374Z,4.12
2022-11-12T06:52:13.704Z,4.13
2022-11-12T06:53:10.358Z,4.14
2022-11-12T06:54:09.405Z,4.16
2022-11-12T06:55:09.321Z,4.16
2022-11-12T06:56:09.307Z,4.14
2022-11-12T06:57:09.316Z,4.14
2022-11-12T06:58:09.284Z,4.14
2022-11-12T06:59:09.276Z,4.16
2022-11-12T07:00:10.211Z,4.16
2022-11-12T07:01:11.948Z,4.16
2022-11-12T07:02:09.311Z,4.16
2022-11-12T07:03:09.249Z,4.16
2022-11-12T07:04:09.285Z,4.17
2022-11-12T07:05:09.201Z,4.17
2022-11-12T07:06:09.210Z,4.19
2022-11-12T07:07:10.761Z,4.20
2022-11-12T07:08:09.203Z,4.22
2022-11-12T07:09:09.199Z,4.26
2022-11-12T07:10:09.161Z,4.30
2022-11-12T07:11:09.131Z,4.34
2022-11-12T07:12:09.141Z,4.37
2022-11-12T07:13:09.149Z,4.40
2022-11-12T07:14:09.188Z,4.44
2022-11-12T07:15:10.109Z,4.49
2022-11-12T07:16:09.104Z,4.49
2022-11-12T07:17:09.105Z,4.48
2022-11-12T07:18:09.238Z,4.48
2022-11-12T07:19:09.058Z,4.45
2022-11-12T07:20:09.058Z,4.44
2022-11-12T07:21:09.062Z,4.45
2022-11-12T07:22:09.025Z,4.45
2022-11-12T07:23:09.003Z,4.48
2022-11-12T07:24:09.022Z,4.45
2022-11-12T07:25:09.323Z,4.48
2022-11-12T07:26:08.965Z,4.48
2022-11-12T07:27:09.006Z,4.45
2022-11-12T07:28:08.987Z,4.48
2022-11-12T07:29:08.964Z,4.49
2022-11-12T07:30:08.950Z,4.50
2022-11-12T07:31:08.918Z,4.52
2022-11-12T07:32:08.902Z,4.53
2022-11-12T07:33:08.911Z,4.55
2022-11-12T07:34:08.927Z,4.58
2022-11-12T07:35:08.891Z,4.60
2022-11-12T07:36:08.884Z,4.63
2022-11-12T07:37:08.863Z,4.67
2022-11-12T07:38:08.850Z,4.70
2022-11-12T07:39:08.875Z,4.74
2022-11-12T07:40:09.243Z,4.78
2022-11-12T07:41:08.809Z,4.82
2022-11-12T07:42:08.816Z,4.87
2022-11-12T07:43:08.793Z,4.90
2022-11-12T07:44:08.776Z,4.93
2022-11-12T07:45:08.778Z,4.97
2022-11-12T07:46:10.860Z,5.00
2022-11-12T07:47:08.781Z,5.05
2022-11-12T07:48:08.726Z,5.08
2022-11-12T07:49:08.727Z,5.10
2022-11-12T07:50:08.717Z,5.14
2022-11-12T07:51:08.711Z,5.20
2022-11-12T07:52:08.676Z,5.23
2022-11-12T07:53:08.731Z,5.26
2022-11-12T07:54:08.670Z,5.29
2022-11-12T07:55:08.701Z,5.33
2022-11-12T07:56:08.647Z,5.36
2022-11-12T07:57:08.629Z,5.41
2022-11-12T07:58:08.626Z,5.44
2022-11-12T07:59:08.620Z,5.48
2022-11-12T08:00:08.797Z,5.51
2022-11-12T08:01:08.626Z,5.56
2022-11-12T08:02:08.625Z,5.57
2022-11-12T08:03:08.599Z,5.62
2022-11-12T08:04:08.552Z,5.64
2022-11-12T08:05:14.501Z,5.65
2022-11-12T08:06:09.552Z,5.69
2022-11-12T08:07:08.750Z,5.69
2022-11-12T08:08:08.567Z,5.73
2022-11-12T08:09:08.529Z,5.76
2022-11-12T08:10:08.491Z,5.82
2022-11-12T08:11:08.485Z,5.84
2022-11-12T08:12:08.461Z,5.90
2022-11-12T08:13:08.492Z,5.93
2022-11-12T08:14:08.452Z,5.98
2022-11-12T08:15:08.431Z,6.02
2022-11-12T08:16:08.903Z,6.07
2022-11-12T08:17:08.403Z,6.12
2022-11-12T08:18:08.422Z,6.17
2022-11-12T08:19:08.386Z,6.22
2022-11-12T08:20:08.411Z,6.28
2022-11-12T08:21:08.364Z,6.30
2022-11-12T08:22:08.344Z,6.35
2022-11-12T08:23:08.344Z,6.39
2022-11-12T08:24:09.279Z,6.44
2022-11-12T08:25:08.318Z,6.48
2022-11-12T08:26:08.334Z,6.52
2022-11-12T08:27:08.285Z,6.56
2022-11-12T08:28:08.294Z,6.60
2022-11-12T08:29:09.038Z,6.63
2022-11-12T08:30:08.264Z,6.66
2022-11-12T08:31:08.268Z,6.72
2022-11-12T08:32:08.240Z,6.77
2022-11-12T08:33:08.340Z,6.79
2022-11-12T08:34:08.324Z,6.84
2022-11-12T08:35:08.248Z,6.89
2022-11-12T08:36:08.255Z,6.95
2022-11-12T08:37:08.187Z,6.99
2022-11-12T08:38:08.181Z,7.03
2022-11-12T08:39:09.666Z,7.10
2022-11-12T08:40:08.188Z,7.15
2022-11-12T08:41:08.584Z,7.21
2022-11-12T08:42:08.149Z,7.28
2022-11-12T08:43:08.113Z,7.31
2022-11-12T08:44:08.920Z,7.36
2022-11-12T08:45:08.119Z,7.42
2022-11-12T08:46:08.129Z,7.48
2022-11-12T08:47:08.067Z,7.53
2022-11-12T08:48:08.078Z,7.58
2022-11-12T08:49:08.047Z,7.67
2022-11-12T08:50:08.043Z,7.73
2022-11-12T08:51:08.041Z,7.79
2022-11-12T08:52:08.033Z,7.83
2022-11-12T08:53:08.023Z,7.91
2022-11-12T08:54:07.992Z,7.98
2022-11-12T08:55:07.990Z,8.05
2022-11-12T08:56:08.045Z,8.10
2022-11-12T08:57:07.972Z,8.18
2022-11-12T08:58:07.953Z,8.26
2022-11-12T08:59:07.980Z,8.33
2022-11-12T09:00:07.987Z,8.42
2022-11-12T09:01:07.926Z,8.49
2022-11-12T09:02:07.926Z,8.56
2022-11-12T09:03:07.886Z,8.66
2022-11-12T09:04:07.881Z,8.74
2022-11-12T09:05:07.886Z,8.82
2022-11-12T09:06:07.887Z,8.91
2022-11-12T09:07:09.719Z,8.99
2022-11-12T09:08:07.877Z,9.04
2022-11-12T09:09:07.822Z,9.13
2022-11-12T09:10:07.850Z,9.19
2022-11-12T09:11:07.813Z,9.25
2022-11-12T09:12:15.045Z,9.31
2022-11-12T09:13:08.816Z,9.36
2022-11-12T09:14:07.808Z,9.40
2022-11-12T09:15:36.124Z,9.43
2022-11-12T09:16:08.753Z,9.48
2022-11-12T09:17:07.779Z,9.54
2022-11-12T09:18:07.729Z,9.58
2022-11-12T09:19:07.737Z,9.64
2022-11-12T09:20:07.707Z,9.66
2022-11-12T09:21:07.706Z,9.76
2022-11-12T09:22:07.676Z,9.80
2022-11-12T09:23:07.668Z,9.87
2022-11-12T09:24:10.500Z,9.94
2022-11-12T09:25:07.687Z,9.98
2022-11-12T09:26:07.642Z,10.04
2022-11-12T09:27:07.617Z,10.09
2022-11-12T09:28:07.616Z,10.13
2022-11-12T09:29:07.619Z,10.16
2022-11-12T09:30:07.612Z,10.22
2022-11-12T09:31:07.597Z,10.26
2022-11-12T09:32:07.608Z,10.31
2022-11-12T09:33:07.548Z,10.40
2022-11-12T09:34:07.568Z,10.46
2022-11-12T09:35:07.565Z,10.54
2022-11-12T09:36:07.529Z,10.60
2022-11-12T09:39:19.600Z,10.75
2022-11-12T09:40:19.480Z,10.81
2022-11-12T09:41:19.478Z,10.86
2022-11-12T09:42:19.487Z,10.89
2022-11-12T09:43:19.438Z,10.93
2022-11-12T09:44:19.961Z,10.97
2022-11-12T09:45:19.414Z,11.00
2022-11-12T09:46:27.707Z,11.05
2022-11-12T09:53:13.538Z,11.36
2022-11-12T09:54:12.458Z,11.41
2022-11-12T09:55:12.439Z,11.44
2022-11-12T09:56:12.455Z,11.48
2022-11-12T09:57:13.345Z,11.54
2022-11-12T09:58:12.453Z,11.60
2022-11-12T09:59:12.397Z,11.65
2022-11-12T10:00:12.386Z,11.69
2022-11-12T10:01:12.486Z,11.73
2022-11-12T10:02:12.427Z,11.77
2022-11-12T10:03:12.353Z,11.81
2022-11-12T10:04:12.372Z,11.86
2022-11-12T10:05:12.336Z,11.88
2022-11-12T10:06:14.651Z,11.90
2022-11-12T10:07:13.369Z,11.97
2022-11-12T10:08:12.291Z,12.02
2022-11-12T10:09:12.297Z,12.07
2022-11-12T10:10:12.321Z,12.10
2022-11-12T10:11:13.712Z,12.17
2022-11-12T10:12:12.506Z,12.20
2022-11-12T10:13:12.267Z,12.24
2022-11-12T10:14:13.183Z,12.27
2022-11-12T10:15:13.665Z,12.29
2022-11-12T10:16:12.253Z,12.36
2022-11-12T10:17:12.862Z,12.40
2022-11-12T10:18:13.666Z,12.46
2022-11-12T10:19:12.185Z,12.49
2022-11-12T10:20:12.461Z,12.54
2022-11-12T10:21:12.626Z,12.58
2022-11-12T10:22:12.181Z,12.62
2022-11-12T10:23:12.140Z,12.67
2022-11-12T10:24:12.217Z,12.68
2022-11-12T10:25:12.129Z,12.73
2022-11-12T10:26:12.455Z,12.75
2022-11-12T10:27:12.097Z,12.78
2022-11-12T10:28:12.078Z,12.82
2022-11-12T10:29:13.063Z,12.83
2022-11-12T10:30:12.050Z,12.86
2022-11-12T10:31:12.703Z,12.90
2022-11-12T10:32:12.029Z,12.91
2022-11-12T10:33:12.043Z,12.91
2022-11-12T10:34:12.016Z,12.94
2022-11-12T10:35:12.938Z,12.95
2022-11-12T10:36:12.031Z,13.00
2022-11-12T10:37:11.998Z,13.01
2022-11-12T10:38:11.969Z,13.04
2022-11-12T10:39:12.808Z,13.05
2022-11-12T10:40:12.891Z,13.09
2022-11-12T10:41:11.927Z,13.11
2022-11-12T10:42:11.945Z,13.11
2022-11-12T10:43:11.910Z,13.13
2022-11-12T10:44:13.344Z,13.16
2022-11-12T10:45:12.722Z,13.18
2022-11-12T10:46:11.900Z,13.19
2022-11-12T10:47:11.874Z,13.20
2022-11-12T10:48:11.871Z,13.23
2022-11-12T10:49:12.789Z,13.25
2022-11-12T10:50:11.828Z,13.28
2022-11-12T10:51:11.841Z,13.33
2022-11-12T10:52:11.826Z,13.37
2022-11-12T10:53:11.786Z,13.39
2022-11-12T10:54:11.775Z,13.42
2022-11-12T10:55:11.798Z,13.46
2022-11-12T10:56:11.798Z,13.49
2022-11-12T10:57:11.775Z,13.52
2022-11-12T10:58:11.736Z,13.54
2022-11-12T10:59:11.774Z,13.59
2022-11-12T11:00:11.718Z,13.60
2022-11-12T11:01:11.746Z,13.63
2022-11-12T11:02:11.770Z,13.68
2022-11-12T11:03:11.718Z,13.70
2022-11-12T11:04:11.657Z,13.71
2022-11-12T11:05:11.673Z,13.72
2022-11-12T11:06:11.654Z,13.75
2022-11-12T11:07:11.648Z,13.75
2022-11-12T11:08:11.620Z,13.77
2022-11-12T11:09:11.837Z,13.78
2022-11-12T11:10:11.629Z,13.83
2022-11-12T11:11:11.590Z,13.83
2022-11-12T11:12:11.770Z,13.86
2022-11-12T11:13:11.748Z,13.87
2022-11-12T11:14:11.549Z,13.90
2022-11-12T11:15:11.539Z,13.90
2022-11-12T11:16:11.557Z,13.92
2022-11-12T11:17:11.510Z,13.93
2022-11-12T11:18:11.550Z,13.96
2022-11-12T11:19:11.520Z,13.97
2022-11-12T11:20:11.479Z,14.00
2022-11-12T11:21:11.463Z,14.05
2022-11-12T11:22:11.458Z,14.07
2022-11-12T11:23:11.473Z,14.11
2022-11-12T11:24:19.140Z,14.14
2022-11-12T11:25:11.437Z,14.15
2022-11-12T11:26:11.434Z,14.18
2022-11-12T11:27:11.406Z,14.23
2022-11-12T11:28:11.421Z,14.26
2022-11-12T11:29:11.392Z,14.29
2022-11-12T11:30:11.398Z,14.30
2022-11-12T11:31:11.405Z,14.33
2022-11-12T11:32:11.347Z,14.36
2022-11-12T11:33:15.228Z,14.40
2022-11-12T11:34:11.321Z,14.41
2022-11-12T11:35:11.315Z,14.45
2022-11-12T11:36:11.313Z,14.47
2022-11-12T11:37:11.486Z,14.51
2022-11-12T11:38:11.284Z,14.51
2022-11-12T11:39:11.267Z,14.54
2022-11-12T11:40:11.297Z,14.58
2022-11-12T11:41:11.256Z,14.60
2022-11-12T11:42:11.244Z,14.60
2022-11-12T11:43:11.237Z,14.62
2022-11-12T11:44:13.986Z,14.65
2022-11-12T11:45:11.210Z,14.69
2022-11-12T11:46:11.230Z,14.70
2022-11-12T11:47:11.189Z,14.73
2022-11-12T11:48:11.517Z,14.79
2022-11-12T11:49:11.181Z,14.81
2022-11-12T11:50:11.142Z,14.85
2022-11-12T11:51:11.170Z,14.88
2022-11-12T11:52:11.108Z,14.89
2022-11-12T11:53:11.111Z,14.92
2022-11-12T11:54:11.137Z,14.96
2022-11-12T11:55:11.096Z,14.99
2022-11-12T11:56:11.082Z,15.02
2022-11-12T11:57:11.090Z,15.04
2022-11-12T11:58:11.063Z,15.06
2022-11-12T11:59:11.050Z,15.10
2022-11-12T12:00:11.047Z,15.14
2022-11-12T12:01:11.022Z,15.19
2022-11-12T12:02:11.062Z,15.24
2022-11-12T12:03:11.089Z,15.28
2022-11-12T12:04:11.030Z,15.35
2022-11-12T12:05:10.984Z,15.40
2022-11-12T12:06:10.965Z,15.47
2022-11-12T12:07:11.008Z,15.52
2022-11-12T12:08:10.958Z,15.58
2022-11-12T12:09:10.953Z,15.58
2022-11-12T12:10:10.915Z,15.64
2022-11-12T12:11:10.919Z,15.67
2022-11-12T12:12:10.905Z,15.72
2022-11-12T12:13:10.935Z,15.77
2022-11-12T12:14:10.945Z,15.82
2022-11-12T12:15:10.857Z,15.88
2022-11-12T12:16:10.845Z,15.92
2022-11-12T12:17:11.822Z,15.95
2022-11-12T12:18:11.272Z,15.98
2022-11-12T12:19:10.837Z,15.98
2022-11-12T12:20:10.875Z,15.98
2022-11-12T12:21:10.795Z,15.97
2022-11-12T12:22:10.789Z,15.98
2022-11-12T12:23:10.796Z,16.00
2022-11-12T12:24:10.780Z,15.98
2022-11-12T12:25:10.783Z,15.98
2022-11-12T12:26:10.729Z,15.95
2022-11-12T12:27:10.720Z,16.00
2022-11-12T12:28:10.717Z,16.04
2022-11-12T12:29:10.719Z,16.10
2022-11-12T12:30:10.747Z,16.15
2022-11-12T12:31:10.709Z,16.23
2022-11-12T12:32:10.704Z,16.31
2022-11-12T12:33:10.683Z,16.39
2022-11-12T12:34:10.665Z,16.49
2022-11-12T12:35:10.651Z,16.53
2022-11-12T12:36:10.628Z,16.60
2022-11-12T12:37:10.653Z,16.66
2022-11-12T12:38:10.618Z,16.71
2022-11-12T12:39:10.597Z,16.76
2022-11-12T12:40:10.845Z,16.83
2022-11-12T12:41:10.590Z,16.90
2022-11-12T12:42:10.594Z,16.94
2022-11-12T12:43:10.601Z,17.02
2022-11-12T12:44:10.526Z,17.05
2022-11-12T12:45:10.536Z,17.08
2022-11-12T12:46:10.526Z,17.14
2022-11-12T12:47:10.547Z,17.20
2022-11-12T12:48:10.494Z,17.24
2022-11-12T12:49:10.505Z,17.24
2022-11-12T12:50:10.553Z,17.31
2022-11-12T12:51:10.471Z,17.39
2022-11-12T12:52:10.447Z,17.45
2022-11-12T12:53:10.465Z,17.48
2022-11-12T12:54:10.425Z,17.49
2022-11-12T12:55:10.435Z,17.56
2022-11-12T12:56:10.408Z,17.63
2022-11-12T12:57:10.405Z,17.70
2022-11-12T12:58:10.499Z,17.72
2022-11-12T12:59:10.406Z,17.79
2022-11-12T13:00:15.381Z,17.82
2022-11-12T13:01:11.479Z,17.83
2022-11-12T13:02:10.356Z,17.86
2022-11-12T13:03:10.313Z,17.89
2022-11-12T13:04:10.301Z,17.90
2022-11-12T13:05:10.351Z,17.90
2022-11-12T13:06:10.300Z,17.90
2022-11-12T13:07:11.076Z,17.95
2022-11-12T13:08:10.264Z,17.98
2022-11-12T13:09:10.249Z,17.98
2022-11-12T13:10:10.270Z,18.03
2022-11-12T13:11:10.234Z,18.01
2022-11-12T13:12:10.243Z,18.05
2022-11-12T13:13:10.208Z,18.08
2022-11-12T13:14:10.191Z,18.11
2022-11-12T13:15:10.195Z,18.13
2022-11-12T13:16:10.170Z,18.18
2022-11-12T13:17:10.184Z,18.23
2022-11-12T13:18:15.998Z,18.31